Time;durP1;ratioP1;P1;durP2;ratioP2;P2;SDS_P1;SDS_P2;PMS_P1;PMS_P2;Temp;Humidity;BMP_temperature;BMP_pressure;BME280_temperature;BME280_humidity;BME280_pressure;Samples;Min_cycle;Max_cycle;Signal;HPM_P1;HPM_P2
2021/03/07 00:02:12;;;;;;;12.95;11.57;;;0.60;99.90;;;;;;4917041;28;20261;-77
2021/03/07 00:04:39;;;;;;;15.35;13.75;;;0.60;99.90;;;;;;4927503;29;20216;-77
2021/03/07 00:07:05;;;;;;;18.50;13.55;;;0.60;99.90;;;;;;4934804;29;20232;-77
2021/03/07 00:09:32;;;;;;;21.77;16.05;;;0.60;99.90;;;;;;4933979;29;20197;-77
2021/03/07 00:11:59;;;;;;;25.42;16.83;;;0.60;99.90;;;;;;4934920;28;20226;-77
2021/03/07 00:14:25;;;;;;;23.08;16.30;;;0.60;99.90;;;;;;4933495;29;20231;-77
2021/03/07 00:16:51;;;;;;;24.65;17.27;;;0.50;99.90;;;;;;4916296;29;20237;-77
2021/03/07 00:19:18;;;;;;;19.83;15.73;;;0.50;99.90;;;;;;4933496;29;20715;-77
2021/03/07 00:21:44;;;;;;;26.48;16.55;;;0.50;99.90;;;;;;4935326;28;20223;-78
2021/03/07 00:24:10;;;;;;;21.70;15.85;;;0.50;99.90;;;;;;4934064;29;20208;-78
2021/03/07 00:26:37;;;;;;;26.23;16.40;;;0.50;99.90;;;;;;4932705;28;20230;-76
2021/03/07 00:29:04;;;;;;;24.20;15.93;;;0.40;99.90;;;;;;4930910;29;20200;-78
2021/03/07 00:31:30;;;;;;;23.90;15.25;;;0.50;99.90;;;;;;4916161;29;20700;-77
2021/03/07 00:33:57;;;;;;;25.45;14.48;;;0.50;99.90;;;;;;4916642;29;20300;-77
2021/03/07 00:36:23;;;;;;;23.35;15.43;;;0.50;99.90;;;;;;4914669;29;20236;-78
2021/03/07 00:38:49;;;;;;;21.85;14.18;;;0.50;99.90;;;;;;4917503;29;20181;-77
2021/03/07 00:41:17;;;;;;;22.80;15.88;;;0.50;99.90;;;;;;4933952;28;20222;-78
2021/03/07 00:43:46;;;;;;;18.67;15.32;;;0.50;99.90;;;;;;4930356;29;20201;-78
2021/03/07 00:46:13;;;;;;;19.65;13.65;;;0.50;99.90;;;;;;4917050;28;20312;-77
2021/03/07 00:48:39;;;;;;;15.52;13.60;;;0.50;99.90;;;;;;4924188;29;20576;-78
2021/03/07 00:51:06;;;;;;;18.67;13.85;;;0.40;99.90;;;;;;4935364;28;20228;-79
2021/03/07 00:53:32;;;;;;;20.73;14.90;;;0.40;99.90;;;;;;4934995;29;20193;-79
2021/03/07 00:55:59;;;;;;;22.27;13.23;;;0.30;99.90;;;;;;4941299;28;20227;-79
2021/03/07 00:58:27;;;;;;;20.98;14.15;;;0.30;99.90;;;;;;4933036;29;20642;-78
2021/03/07 01:00:53;;;;;;;24.35;15.75;;;0.30;99.90;;;;;;4916457;28;20177;-78
2021/03/07 01:03:20;;;;;;;16.35;13.40;;;0.30;99.90;;;;;;4915156;29;20189;-78
2021/03/07 01:05:46;;;;;;;20.35;14.55;;;0.30;99.90;;;;;;4923149;28;20233;-79
2021/03/07 01:08:13;;;;;;;18.98;13.93;;;0.20;99.90;;;;;;4934503;29;20188;-79
2021/03/07 01:10:43;;;;;;;23.67;15.45;;;0.30;99.90;;;;;;4933640;28;20201;-77
2021/03/07 01:13:12;;;;;;;19.42;15.00;;;0.30;99.90;;;;;;4934795;29;20267;-78
2021/03/07 01:15:39;;;;;;;19.05;14.35;;;0.40;99.90;;;;;;4915822;28;20269;-78
2021/03/07 01:18:07;;;;;;;26.40;15.63;;;0.40;99.90;;;;;;4949619;29;20187;-79
2021/03/07 01:20:36;;;;;;;24.60;15.23;;;0.30;99.90;;;;;;4934063;29;20554;-78
2021/03/07 01:23:03;;;;;;;20.48;14.73;;;0.30;99.90;;;;;;4935128;29;20316;-78
2021/03/07 01:25:31;;;;;;;18.92;15.13;;;0.30;99.90;;;;;;4933232;29;20215;-79
2021/03/07 01:28:01;;;;;;;18.38;14.45;;;0.20;99.90;;;;;;4923120;28;20329;-79
2021/03/07 01:30:30;;;;;;;25.77;15.88;;;0.20;99.90;;;;;;4916522;29;20244;-78
2021/03/07 01:32:57;;;;;;;20.27;14.02;;;0.10;99.90;;;;;;4916017;28;20586;-79
2021/03/07 01:35:24;;;;;;;20.23;15.02;;;0.00;99.90;;;;;;4931699;29;20258;-79
2021/03/07 01:37:53;;;;;;;27.13;16.55;;;0.00;99.90;;;;;;4933336;28;20220;-78
2021/03/07 01:40:23;;;;;;;22.27;16.30;;;-0.10;99.90;;;;;;4933474;29;20613;-78
2021/03/07 01:42:51;;;;;;;28.05;17.13;;;-0.10;99.90;;;;;;4933532;28;20229;-78
2021/03/07 01:45:27;;;;;;;23.55;16.52;;;-0.10;99.90;;;;;;4932988;28;20224;-79
2021/03/07 01:47:56;;;;;;;22.90;17.08;;;-0.20;99.90;;;;;;4922050;29;20221;-78
2021/03/07 01:50:25;;;;;;;27.17;15.57;;;-0.20;99.90;;;;;;4923391;29;20398;-78
2021/03/07 01:52:52;;;;;;;23.92;17.73;;;-0.20;99.90;;;;;;4933885;28;20699;-78
2021/03/07 01:55:23;;;;;;;25.30;16.70;;;-0.20;99.90;;;;;;4919610;29;20210;-79
2021/03/07 01:58:01;;;;;;;19.70;15.32;;;-0.30;99.90;;;;;;4931974;29;20212;-79
2021/03/07 02:00:28;;;;;;;22.85;15.75;;;-0.20;99.90;;;;;;4934815;29;20189;-79
2021/03/07 02:02:55;;;;;;;21.38;15.10;;;-0.30;99.90;;;;;;4924067;28;20711;-78
2021/03/07 02:05:22;;;;;;;21.45;15.18;;;-0.20;99.90;;;;;;4929642;29;20220;-79
2021/03/07 02:07:49;;;;;;;21.17;13.85;;;-0.10;99.90;;;;;;4947642;28;20220;-78
2021/03/07 02:10:20;;;;;;;19.08;13.50;;;0.10;99.90;;;;;;4949000;29;20216;-78
2021/03/07 02:12:49;;;;;;;17.65;14.23;;;0.10;99.90;;;;;;4933546;28;20249;-79
2021/03/07 02:15:18;;;;;;;20.48;12.65;;;0.10;99.90;;;;;;4919619;29;20225;-79
2021/03/07 02:17:45;;;;;;;22.17;11.95;;;0.20;99.90;;;;;;4915381;28;20220;-79
2021/03/07 02:20:15;;;;;;;17.23;12.85;;;0.30;99.90;;;;;;4920872;29;20203;-78
2021/03/07 02:23:05;;;;;;;18.50;12.07;;;0.40;99.90;;;;;;4941677;28;20228;-78
2021/03/07 02:25:33;;;;;;;19.00;13.52;;;0.40;99.90;;;;;;4932978;29;20596;-78
2021/03/07 02:28:00;;;;;;;16.23;12.57;;;0.30;99.90;;;;;;4935319;28;20220;-78
2021/03/07 02:30:28;;;;;;;15.38;11.65;;;0.20;99.90;;;;;;4938191;29;20656;-78
2021/03/07 02:33:09;;;;;;;16.88;12.00;;;0.30;99.90;;;;;;4936776;28;20220;-78
2021/03/07 02:35:40;;;;;;;16.75;11.95;;;0.30;99.90;;;;;;4932212;29;20227;-79
2021/03/07 02:38:08;;;;;;;15.10;10.55;;;0.20;99.90;;;;;;4952018;29;20216;-79
2021/03/07 02:40:36;;;;;;;20.38;12.15;;;0.10;99.90;;;;;;4937232;29;20185;-79
2021/03/07 02:43:12;;;;;;;15.60;12.52;;;0.10;99.90;;;;;;4937456;29;20220;-78
2021/03/07 02:45:41;;;;;;;13.65;11.38;;;0.00;99.90;;;;;;4936184;28;20232;-78
2021/03/07 02:48:10;;;;;;;15.73;11.70;;;0.10;99.90;;;;;;4936512;29;20185;-79
2021/03/07 02:50:39;;;;;;;14.73;11.52;;;0.10;99.90;;;;;;4938666;29;20201;-79
2021/03/07 02:53:10;;;;;;;13.88;11.57;;;0.10;99.90;;;;;;4932611;29;20252;-78
2021/03/07 02:55:38;;;;;;;23.35;14.23;;;0.00;99.90;;;;;;4922037;29;20659;-79
2021/03/07 02:58:07;;;;;;;17.58;12.57;;;0.00;99.90;;;;;;4936775;29;20220;-78
2021/03/07 03:00:35;;;;;;;17.70;12.35;;;0.00;99.90;;;;;;4936756;29;20204;-79
2021/03/07 03:03:08;;;;;;;12.85;10.90;;;0.00;99.90;;;;;;4936846;29;20219;-79
2021/03/07 03:05:38;;;;;;;16.27;12.70;;;-0.10;99.90;;;;;;4935351;29;20220;-78
2021/03/07 03:08:05;;;;;;;18.13;12.98;;;-0.20;99.90;;;;;;4951175;29;20307;-79
2021/03/07 03:10:33;;;;;;;15.25;11.50;;;-0.40;99.90;;;;;;4932150;29;20200;-79
2021/03/07 03:13:00;;;;;;;20.85;13.00;;;-0.40;99.90;;;;;;4936453;28;20224;-79
2021/03/07 03:15:28;;;;;;;14.90;11.82;;;-0.50;99.90;;;;;;4929465;29;20201;-79
2021/03/07 03:17:56;;;;;;;15.13;11.18;;;-0.50;99.90;;;;;;4915814;29;20229;-78
2021/03/07 03:20:23;;;;;;;15.70;10.48;;;-0.60;99.90;;;;;;4928908;29;20189;-79
2021/03/07 03:22:50;;;;;;;13.82;11.18;;;-0.50;99.90;;;;;;4935330;28;20767;-79
2021/03/07 03:25:16;;;;;;;14.50;11.80;;;-0.50;99.90;;;;;;4932492;29;20207;-79
2021/03/07 03:27:43;;;;;;;18.30;11.68;;;-0.60;99.90;;;;;;4934464;28;20258;-78
2021/03/07 03:30:15;;;;;;;17.42;11.30;;;-0.70;99.90;;;;;;4932576;29;20209;-79
2021/03/07 03:32:42;;;;;;;16.17;11.00;;;-0.80;99.90;;;;;;4915842;29;20221;-79
2021/03/07 03:35:14;;;;;;;14.10;10.68;;;-0.80;99.90;;;;;;4918253;29;20233;-79
2021/03/07 03:37:42;;;;;;;13.25;10.07;;;-0.80;99.90;;;;;;4917052;29;20627;-79
2021/03/07 03:40:15;;;;;;;13.90;11.05;;;-0.80;99.90;;;;;;4917662;29;20189;-78
2021/03/07 03:42:43;;;;;;;12.80;10.52;;;-0.80;99.90;;;;;;4917247;28;20235;-78
2021/03/07 03:45:11;;;;;;;13.63;11.30;;;-0.80;99.90;;;;;;4919168;29;20575;-79
2021/03/07 03:47:42;;;;;;;16.73;11.85;;;-0.80;99.90;;;;;;4935460;28;20228;-78
2021/03/07 03:50:11;;;;;;;15.95;10.98;;;-0.90;99.90;;;;;;4933701;29;20212;-79
2021/03/07 03:52:38;;;;;;;16.48;11.65;;;-0.90;99.90;;;;;;4934525;29;20225;-78
2021/03/07 03:55:19;;;;;;;15.82;10.63;;;-1.00;99.90;;;;;;4934955;29;20205;-78
2021/03/07 03:57:48;;;;;;;14.88;10.70;;;-1.00;99.90;;;;;;4935106;28;20295;-79
2021/03/07 04:00:17;;;;;;;13.10;11.10;;;-1.00;99.90;;;;;;4934549;29;20191;-78
2021/03/07 04:02:46;;;;;;;13.75;11.95;;;-1.00;99.90;;;;;;4934327;28;20571;-79
2021/03/07 04:05:17;;;;;;;14.75;11.13;;;-1.00;99.90;;;;;;4934269;29;20228;-78
2021/03/07 04:07:46;;;;;;;14.05;11.32;;;-1.10;99.90;;;;;;4949560;29;20598;-78
2021/03/07 04:10:17;;;;;;;14.32;11.38;;;-1.10;99.90;;;;;;4930886;29;20224;-79
2021/03/07 04:12:46;;;;;;;11.02;9.82;;;-1.10;99.90;;;;;;4935019;28;20256;-78
2021/03/07 04:15:15;;;;;;;14.07;10.52;;;-1.00;99.90;;;;;;4934812;29;20215;-79
2021/03/07 04:17:42;;;;;;;14.57;10.55;;;-1.10;99.90;;;;;;4934509;28;20232;-78
2021/03/07 04:20:13;;;;;;;13.27;10.38;;;-1.10;99.90;;;;;;4929156;29;20296;-78
2021/03/07 04:22:39;;;;;;;16.55;10.30;;;-1.20;99.90;;;;;;4915972;29;20228;-79
2021/03/07 04:25:07;;;;;;;14.45;10.05;;;-1.20;99.90;;;;;;4915583;29;20280;-78
2021/03/07 04:27:34;;;;;;;16.10;10.13;;;-1.30;99.90;;;;;;4934336;28;20228;-78
2021/03/07 04:30:02;;;;;;;12.60;10.20;;;-1.30;99.90;;;;;;4934401;29;20602;-77
2021/03/07 04:32:30;;;;;;;13.63;10.95;;;-1.30;99.90;;;;;;4949059;29;20571;-78
2021/03/07 04:34:58;;;;;;;15.27;10.93;;;-1.30;99.90;;;;;;4932878;29;20709;-79
2021/03/07 04:37:25;;;;;;;15.70;12.23;;;-1.30;99.90;;;;;;4933275;29;20298;-79
2021/03/07 04:39:51;;;;;;;15.60;12.38;;;-1.40;99.90;;;;;;4934423;29;20234;-79
2021/03/07 04:42:17;;;;;;;15.98;12.27;;;-1.40;99.90;;;;;;4929060;28;20209;-78
2021/03/07 04:44:44;;;;;;;15.98;12.25;;;-1.40;99.90;;;;;;4915198;29;20209;-78
2021/03/07 04:47:10;;;;;;;18.65;13.30;;;-1.40;99.90;;;;;;4913659;29;20723;-78
2021/03/07 04:49:37;;;;;;;17.52;12.65;;;-1.40;99.90;;;;;;4918366;29;20188;-79
2021/03/07 04:52:03;;;;;;;16.92;13.02;;;-1.50;99.90;;;;;;4930881;28;20733;-79
2021/03/07 04:54:30;;;;;;;18.20;12.60;;;-1.40;99.90;;;;;;4930610;29;20209;-78
2021/03/07 04:56:56;;;;;;;18.70;13.23;;;-1.40;99.90;;;;;;4949082;28;20221;-78
2021/03/07 04:59:22;;;;;;;17.50;12.88;;;-1.40;99.90;;;;;;4933817;29;20189;-79
2021/03/07 05:01:49;;;;;;;19.05;11.90;;;-1.50;99.90;;;;;;4948645;28;20231;-79
2021/03/07 05:04:15;;;;;;;19.55;13.23;;;-1.60;99.90;;;;;;4933783;29;20216;-78
2021/03/07 05:06:42;;;;;;;22.33;12.55;;;-1.50;99.90;;;;;;4930305;29;20291;-78
2021/03/07 05:09:10;;;;;;;19.75;11.75;;;-1.50;99.90;;;;;;4946517;29;20203;-78
2021/03/07 05:11:37;;;;;;;16.55;11.32;;;-1.50;99.90;;;;;;4941877;28;20229;-78
2021/03/07 05:14:04;;;;;;;15.15;10.70;;;-1.50;99.90;;;;;;4942951;29;20212;-79
2021/03/07 05:16:33;;;;;;;17.55;12.43;;;-1.50;99.90;;;;;;4922441;29;20573;-78
2021/03/07 05:18:59;;;;;;;17.15;12.20;;;-1.60;99.90;;;;;;4912155;29;20193;-78
2021/03/07 05:21:26;;;;;;;23.75;13.52;;;-1.60;99.90;;;;;;4927536;28;20220;-79
2021/03/07 05:23:54;;;;;;;14.27;12.40;;;-1.50;99.90;;;;;;4932163;29;20201;-79
2021/03/07 05:26:21;;;;;;;18.75;11.65;;;-1.50;99.90;;;;;;4927902;28;20216;-78
2021/03/07 05:28:48;;;;;;;19.88;13.63;;;-1.50;99.90;;;;;;4931472;29;20188;-78
2021/03/07 05:31:15;;;;;;;21.42;14.40;;;-1.50;99.90;;;;;;4914063;29;20228;-78
2021/03/07 05:33:42;;;;;;;25.48;16.77;;;-1.50;99.90;;;;;;4931521;29;20304;-78
2021/03/07 05:36:08;;;;;;;23.33;14.48;;;-1.50;99.90;;;;;;4930800;28;20587;-79
2021/03/07 05:38:34;;;;;;;19.17;12.65;;;-1.60;99.90;;;;;;4931312;29;20623;-78
2021/03/07 05:41:01;;;;;;;15.20;12.65;;;-1.60;99.90;;;;;;4928475;28;20239;-79
2021/03/07 05:43:27;;;;;;;21.65;13.02;;;-1.70;99.90;;;;;;4931756;29;20192;-78
2021/03/07 05:45:54;;;;;;;16.25;12.85;;;-1.70;99.90;;;;;;4930255;28;20200;-79
2021/03/07 05:48:21;;;;;;;21.60;12.68;;;-1.70;99.90;;;;;;4930710;29;20276;-78
2021/03/07 05:50:47;;;;;;;16.05;12.70;;;-1.80;99.90;;;;;;4929971;28;20583;-79
2021/03/07 05:53:13;;;;;;;17.80;12.43;;;-1.80;99.90;;;;;;4932368;29;20189;-79
2021/03/07 05:55:41;;;;;;;15.45;12.07;;;-1.70;99.90;;;;;;4929616;29;20213;-79
2021/03/07 05:58:08;;;;;;;19.38;13.15;;;;;;;;;;4931210;29;20291;-79
2021/03/07 06:00:35;;;;;;;16.95;13.25;;;-1.70;99.90;;;;;;4933887;29;20595;-79
2021/03/07 06:03:01;;;;;;;19.52;12.80;;;-1.80;99.90;;;;;;4935218;28;20566;-78
2021/03/07 06:05:28;;;;;;;15.60;11.90;;;-1.80;99.90;;;;;;4933795;29;20579;-79
2021/03/07 06:07:54;;;;;;;19.00;13.30;;;-1.80;99.90;;;;;;4932764;28;20231;-78
2021/03/07 06:10:22;;;;;;;18.08;12.93;;;-1.80;99.90;;;;;;4930558;29;20396;-79
2021/03/07 06:13:05;;;;;;;18.92;13.45;;;-1.80;99.90;;;;;;4933901;28;20591;-79
2021/03/07 06:15:51;;;;;;;26.83;16.45;;;-1.80;99.90;;;;;;4932216;28;20197;-78
2021/03/07 06:18:20;;;;;;;23.88;16.70;;;-1.80;99.90;;;;;;4948903;29;20210;-78
2021/03/07 06:20:51;;;;;;;20.02;16.05;;;-1.90;99.90;;;;;;4931806;28;20654;-78
2021/03/07 06:23:32;;;;;;;22.50;17.40;;;-1.90;99.90;;;;;;4935145;29;20193;-79
2021/03/07 06:26:09;;;;;;;24.45;18.90;;;-1.90;99.90;;;;;;4933665;28;20231;-78
2021/03/07 06:28:35;;;;;;;25.52;18.30;;;-1.80;99.90;;;;;;4932753;29;20196;-79
2021/03/07 06:31:02;;;;;;;25.25;18.48;;;-1.80;99.90;;;;;;4934607;28;20575;-78
2021/03/07 06:33:34;;;;;;;23.23;16.42;;;-1.80;99.90;;;;;;4933159;29;20196;-79
2021/03/07 06:36:22;;;;;;;18.83;16.50;;;-1.80;99.90;;;;;;4915267;28;20244;-78
2021/03/07 06:39:06;;;;;;;20.17;13.98;;;-1.70;99.90;;;;;;4914268;29;20293;-78
2021/03/07 06:41:34;;;;;;;18.92;13.95;;;-1.70;99.90;;;;;;4925021;29;20224;-78
2021/03/07 06:44:14;;;;;;;27.48;17.40;;;-1.60;99.90;;;;;;4929881;29;20692;-79
2021/03/07 06:46:42;;;;;;;22.70;16.88;;;-1.60;99.90;;;;;;4914091;29;20228;-79
2021/03/07 06:49:29;;;;;;;25.67;18.55;;;-1.50;99.90;;;;;;4927616;29;20201;-79
2021/03/07 06:52:18;;;;;;;29.75;19.40;;;-1.40;99.90;;;;;;4930527;28;20240;-79
2021/03/07 06:55:05;;;;;;;36.95;24.40;;;-1.40;99.90;;;;;;4914864;29;20565;-79
2021/03/07 06:57:32;;;;;;;40.28;22.73;;;-1.30;99.90;;;;;;4928198;29;20737;-78
2021/03/07 06:59:59;;;;;;;33.50;20.70;;;-1.20;99.90;;;;;;4914530;29;20177;-79
2021/03/07 07:02:27;;;;;;;30.40;20.58;;;-1.10;99.90;;;;;;4909421;29;20223;-78
2021/03/07 07:04:54;;;;;;;23.40;17.00;;;-1.00;99.90;;;;;;4934474;29;20224;-78
2021/03/07 07:07:22;;;;;;;22.88;16.23;;;-0.90;99.90;;;;;;4932121;28;20595;-79
2021/03/07 07:10:00;;;;;;;22.38;16.00;;;-0.70;99.90;;;;;;4932728;29;20193;-78
2021/03/07 07:12:29;;;;;;;22.33;15.93;;;-0.60;99.90;;;;;;4931242;28;20769;-78
2021/03/07 07:15:14;;;;;;;23.10;15.95;;;-0.40;99.90;;;;;;4933877;29;20709;-78
2021/03/07 07:17:41;;;;;;;20.13;14.32;;;-0.40;99.90;;;;;;4927303;28;20216;-78
2021/03/07 07:20:12;;;;;;;18.45;14.18;;;-0.30;99.90;;;;;;4915360;29;20197;-78
2021/03/07 07:22:47;;;;;;;15.00;12.77;;;-0.20;99.90;;;;;;4927846;28;20227;-77
2021/03/07 07:25:14;;;;;;;16.30;12.65;;;-0.20;99.90;;;;;;4929413;29;20231;-78
2021/03/07 07:27:40;;;;;;;14.57;12.88;;;-0.10;99.90;;;;;;4932437;28;20224;-78
2021/03/07 07:30:07;;;;;;;16.97;12.17;;;-0.10;99.90;;;;;;4916187;29;20224;-77
2021/03/07 07:32:41;;;;;;;14.88;11.82;;;0.00;99.90;;;;;;4932406;28;20283;-78
2021/03/07 07:35:18;;;;;;;15.30;12.48;;;0.10;99.90;;;;;;4932696;29;20252;-78
2021/03/07 07:37:52;;;;;;;15.27;12.40;;;0.20;99.90;;;;;;4932502;28;20224;-78
2021/03/07 07:40:31;;;;;;;14.65;12.50;;;0.30;99.90;;;;;;4933212;29;20276;-77
2021/03/07 07:42:58;;;;;;;16.95;15.05;;;0.40;99.90;;;;;;4914915;29;20603;-78
2021/03/07 07:45:25;;;;;;;24.50;16.13;;;0.50;99.90;;;;;;4915196;29;20212;-77
2021/03/07 07:47:53;;;;;;;21.73;15.70;;;0.60;99.90;;;;;;4930060;28;20224;-78
2021/03/07 07:50:34;;;;;;;19.73;13.35;;;0.60;99.90;;;;;;4933699;29;20243;-78
2021/03/07 07:53:12;;;;;;;18.80;14.75;;;0.70;99.90;;;;;;4933465;28;20306;-78
2021/03/07 07:55:47;;;;;;;22.15;15.52;;;0.80;99.90;;;;;;4932237;29;20259;-78
2021/03/07 07:58:36;;;;;;;20.13;14.70;;;0.90;99.90;;;;;;4928682;29;20233;-78
2021/03/07 08:01:05;;;;;;;22.75;15.40;;;1.00;99.90;;;;;;4929415;28;20221;-78
2021/03/07 08:03:37;;;;;;;21.60;15.48;;;1.10;99.90;;;;;;4923283;29;20592;-78
2021/03/07 08:06:06;;;;;;;17.40;13.55;;;1.20;99.90;;;;;;4920573;28;20737;-78
2021/03/07 08:08:44;;;;;;;17.30;13.70;;;1.30;99.90;;;;;;4926622;29;20213;-78
2021/03/07 08:11:23;;;;;;;16.73;14.40;;;1.50;99.90;;;;;;4932292;28;20702;-78
2021/03/07 08:13:59;;;;;;;16.42;14.30;;;1.80;99.90;;;;;;4932492;29;20219;-78
2021/03/07 08:16:44;;;;;;;15.25;13.15;;;1.80;99.90;;;;;;4915404;29;20303;-78
2021/03/07 08:19:43;;;;;;;16.25;13.90;;;1.80;99.90;;;;;;4930211;29;20650;-78
2021/03/07 08:22:10;;;;;;;19.23;15.02;;;1.90;99.90;;;;;;4950023;28;20232;-78
2021/03/07 08:24:56;;;;;;;17.27;13.82;;;1.90;99.90;;;;;;4932312;29;20221;-77
2021/03/07 08:27:49;;;;;;;20.05;13.85;;;2.00;99.90;;;;;;4931062;29;20231;-77
2021/03/07 08:30:16;;;;;;;15.35;13.75;;;2.10;99.90;;;;;;4913198;29;20690;-78
2021/03/07 08:32:46;;;;;;;15.15;12.95;;;2.10;99.90;;;;;;4928784;29;20592;-78
2021/03/07 08:35:27;;;;;;;17.75;14.13;;;2.20;99.90;;;;;;4919149;29;20219;-78
2021/03/07 08:38:13;;;;;;;16.58;14.00;;;2.20;99.90;;;;;;4947054;28;20220;-78
2021/03/07 08:40:54;;;;;;;17.67;13.90;;;2.30;99.90;;;;;;4930356;28;20737;-78
2021/03/07 08:43:23;;;;;;;18.33;14.07;;;2.30;99.90;;;;;;4933519;29;20196;-78
2021/03/07 08:45:59;;;;;;;16.35;14.57;;;2.40;99.90;;;;;;4924618;29;20203;-78
2021/03/07 08:48:26;;;;;;;18.63;16.30;;;2.50;99.90;;;;;;4913868;29;20185;-78
2021/03/07 08:50:54;;;;;;;18.70;16.00;;;2.60;99.90;;;;;;4922207;28;20208;-79
2021/03/07 08:53:26;;;;;;;20.05;16.75;;;2.60;99.90;;;;;;4931766;29;20663;-78
2021/03/07 08:55:53;;;;;;;19.65;17.45;;;2.70;99.90;;;;;;4935929;28;20195;-78
2021/03/07 08:58:21;;;;;;;19.65;15.75;;;2.80;99.90;;;;;;4951063;29;20188;-79
2021/03/07 09:00:53;;;;;;;17.35;15.52;;;2.90;99.90;;;;;;4945162;28;20203;-79
2021/03/07 09:03:22;;;;;;;22.83;16.13;;;2.90;99.90;;;;;;4932390;29;20181;-78
2021/03/07 09:05:49;;;;;;;17.33;15.63;;;3.00;99.90;;;;;;4931620;28;20200;-78
2021/03/07 09:08:21;;;;;;;19.55;17.45;;;3.10;99.90;;;;;;4913850;29;20200;-78
2021/03/07 09:10:50;;;;;;;20.20;16.20;;;3.20;99.90;;;;;;4919593;28;20335;-78
2021/03/07 09:13:20;;;;;;;17.80;16.00;;;3.30;99.90;;;;;;4934577;29;20188;-78
2021/03/07 09:15:51;;;;;;;19.08;15.90;;;3.50;99.90;;;;;;4916257;28;20193;-78
2021/03/07 09:18:26;;;;;;;19.40;17.30;;;3.60;99.90;;;;;;4941294;29;20252;-78
2021/03/07 09:20:57;;;;;;;18.42;16.30;;;3.60;99.90;;;;;;4929929;28;20235;-78
2021/03/07 09:23:40;;;;;;;17.55;15.57;;;3.70;99.90;;;;;;4927468;29;20396;-78
2021/03/07 09:26:32;;;;;;;17.95;16.00;;;3.80;99.40;;;;;;4930864;29;20224;-77
2021/03/07 09:28:58;;;;;;;20.77;16.63;;;3.90;99.80;;;;;;4912284;29;20196;-78
2021/03/07 09:31:36;;;;;;;20.45;16.77;;;3.90;99.90;;;;;;4932769;28;20220;-78
2021/03/07 09:34:05;;;;;;;19.52;15.32;;;3.90;99.90;;;;;;4924264;29;20253;-78
2021/03/07 09:36:37;;;;;;;20.40;15.98;;;4.10;98.40;;;;;;4928044;28;20225;-78
2021/03/07 09:39:07;;;;;;;18.42;15.90;;;4.30;98.40;;;;;;4932090;29;20624;-78
2021/03/07 09:41:46;;;;;;;17.70;15.85;;;4.40;97.80;;;;;;4923691;29;20220;-78
2021/03/07 09:44:16;;;;;;;18.52;15.77;;;4.50;98.20;;;;;;4920806;29;20243;-78
2021/03/07 09:46:47;;;;;;;20.02;15.77;;;4.50;97.30;;;;;;4920982;29;20706;-78
2021/03/07 09:49:23;;;;;;;20.40;15.38;;;4.70;97.40;;;;;;4932510;29;20192;-78
2021/03/07 09:51:51;;;;;;;19.15;15.25;;;4.90;96.60;;;;;;4916025;29;20228;-78
2021/03/07 09:54:18;;;;;;;18.65;15.73;;;5.50;94.40;;;;;;4929197;29;20213;-78
2021/03/07 09:56:46;;;;;;;15.85;14.25;;;5.60;94.10;;;;;;4943165;28;20220;-77
2021/03/07 09:59:21;;;;;;;20.85;16.08;;;5.90;92.90;;;;;;4920594;29;20197;-79
2021/03/07 10:01:58;;;;;;;20.63;16.55;;;5.90;92.90;;;;;;4922205;29;20225;-79
2021/03/07 10:04:36;;;;;;;18.88;15.10;;;6.00;92.60;;;;;;4934399;29;20302;-78
2021/03/07 10:07:12;;;;;;;17.85;15.70;;;6.20;91.70;;;;;;4932550;28;20230;-78
2021/03/07 10:10:13;;;;;;;17.10;15.35;;;6.50;91.20;;;;;;4933810;29;20193;-78
2021/03/07 10:12:50;;;;;;;22.47;17.87;;;6.70;90.10;;;;;;4933006;28;20234;-78
2021/03/07 10:15:28;;;;;;;23.80;16.57;;;6.80;88.80;;;;;;4935266;29;20508;-78
2021/03/07 10:18:03;;;;;;;23.10;17.40;;;7.00;87.10;;;;;;4935323;29;20552;-78
2021/03/07 10:20:35;;;;;;;23.33;19.10;;;7.20;85.90;;;;;;4944892;29;20515;-78
2021/03/07 10:23:01;;;;;;;28.77;18.00;;;7.40;82.10;;;;;;4917764;28;20468;-78
2021/03/07 10:25:30;;;;;;;18.95;16.55;;;7.40;82.10;;;;;;4927234;29;20463;-78
2021/03/07 10:28:06;;;;;;;22.30;18.00;;;7.20;81.90;;;;;;4934854;29;20230;-78
2021/03/07 10:30:41;;;;;;;20.83;17.80;;;7.10;81.90;;;;;;4934492;29;20437;-78
2021/03/07 10:33:23;;;;;;;24.45;17.38;;;7.10;84.50;;;;;;4941623;29;20455;-78
2021/03/07 10:36:09;;;;;;;25.20;18.33;;;7.00;86.00;;;;;;4928024;28;20661;-78
2021/03/07 10:38:45;;;;;;;19.02;16.92;;;7.00;86.70;;;;;;4930923;29;20189;-78
2021/03/07 10:41:25;;;;;;;25.52;17.75;;;7.00;83.00;;;;;;4934453;28;20310;-78
2021/03/07 10:43:56;;;;;;;22.10;18.40;;;6.90;81.90;;;;;;4934312;29;20416;-77
2021/03/07 10:46:31;;;;;;;20.45;18.25;;;7.00;83.00;;;;;;4936431;28;20271;-77
2021/03/07 10:49:19;;;;;;;19.50;17.25;;;7.00;81.70;;;;;;4947019;29;20185;-78
2021/03/07 10:51:46;;;;;;;21.35;18.50;;;6.90;81.00;;;;;;4935051;29;20232;-77
2021/03/07 10:54:12;;;;;;;16.90;15.20;;;6.80;79.90;;;;;;4921286;29;20217;-77
2021/03/07 10:56:42;;;;;;;18.60;16.58;;;6.80;76.70;;;;;;4928269;28;20224;-77
2021/03/07 10:59:10;;;;;;;18.50;16.40;;;6.80;80.70;;;;;;4932926;29;20229;-77
2021/03/07 11:01:40;;;;;;;19.40;17.00;;;6.90;79.30;;;;;;4949375;28;20224;-77
2021/03/07 11:04:08;;;;;;;22.45;18.08;;;6.90;77.60;;;;;;4922640;29;20644;-78
2021/03/07 11:06:34;;;;;;;18.77;15.15;;;6.90;79.00;;;;;;4933472;28;20255;-77
2021/03/07 11:09:01;;;;;;;20.60;16.70;;;6.90;75.70;;;;;;4924290;29;20204;-77
2021/03/07 11:11:27;;;;;;;17.10;15.35;;;6.90;76.40;;;;;;4924039;28;20227;-77
2021/03/07 11:13:53;;;;;;;18.38;16.42;;;6.80;79.00;;;;;;4933653;29;20216;-77
2021/03/07 11:16:20;;;;;;;18.20;16.40;;;6.90;78.30;;;;;;4933439;28;20230;-78
2021/03/07 11:18:46;;;;;;;16.92;15.23;;;6.90;78.30;;;;;;4933627;29;20337;-77
2021/03/07 11:21:13;;;;;;;16.80;15.10;;;6.90;80.40;;;;;;4930320;29;20758;-77
2021/03/07 11:23:39;;;;;;;19.70;15.18;;;6.90;79.20;;;;;;4934210;29;20613;-77
2021/03/07 11:26:06;;;;;;;18.50;15.70;;;7.00;78.70;;;;;;4923322;28;20718;-78
2021/03/07 11:28:33;;;;;;;16.73;15.07;;;7.00;78.80;;;;;;4921444;29;20818;-78
2021/03/07 11:30:59;;;;;;;17.20;15.43;;;7.10;78.10;;;;;;4914314;29;20217;-78
2021/03/07 11:33:26;;;;;;;16.63;14.68;;;7.10;77.40;;;;;;4931221;29;20216;-78
2021/03/07 11:35:53;;;;;;;15.65;14.13;;;7.10;79.50;;;;;;4925098;28;20652;-78
2021/03/07 11:38:20;;;;;;;15.75;13.80;;;7.00;78.10;;;;;;4923995;29;20192;-77
2021/03/07 11:40:47;;;;;;;19.58;14.57;;;7.00;78.20;;;;;;4932090;28;20215;-77
2021/03/07 11:43:13;;;;;;;15.70;14.10;;;7.00;78.40;;;;;;4948554;29;20651;-77
2021/03/07 11:45:40;;;;;;;16.70;13.75;;;7.10;77.00;;;;;;4927668;29;20201;-78
2021/03/07 11:48:07;;;;;;;15.27;13.50;;;7.10;78.10;;;;;;4914927;29;20197;-78
2021/03/07 11:50:34;;;;;;;13.50;12.10;;;7.10;78.30;;;;;;4919678;29;20252;-77
2021/03/07 11:53:01;;;;;;;14.25;11.60;;;7.30;78.40;;;;;;4932811;28;20288;-77
2021/03/07 11:55:27;;;;;;;13.80;11.07;;;7.40;77.80;;;;;;4932572;29;20231;-77
2021/03/07 11:57:54;;;;;;;16.00;13.07;;;7.50;74.10;;;;;;4924295;28;20213;-77
2021/03/07 12:00:20;;;;;;;12.75;11.43;;;7.50;74.90;;;;;;4913686;29;20217;-77
2021/03/07 12:02:48;;;;;;;11.02;9.88;;;7.40;72.80;;;;;;4927452;29;20230;-77
2021/03/07 12:05:15;;;;;;;13.80;10.95;;;7.50;72.20;;;;;;4931778;29;20347;-77
2021/03/07 12:07:41;;;;;;;10.65;9.65;;;7.50;71.80;;;;;;4931884;28;20590;-77
2021/03/07 12:10:08;;;;;;;11.57;10.35;;;7.50;71.80;;;;;;4932096;29;20203;-77
2021/03/07 12:12:34;;;;;;;11.20;10.10;;;7.60;71.10;;;;;;4945105;28;20241;-77
2021/03/07 12:15:02;;;;;;;16.25;11.15;;;7.50;71.00;;;;;;4931378;29;20212;-77
2021/03/07 12:17:28;;;;;;;15.93;10.45;;;7.50;72.50;;;;;;4928097;29;20225;-77
2021/03/07 12:20:02;;;;;;;16.27;11.32;;;7.50;72.60;;;;;;4913614;29;20220;-77
2021/03/07 12:22:28;;;;;;;11.90;10.60;;;7.50;72.40;;;;;;4913660;29;20229;-76
2021/03/07 12:24:56;;;;;;;11.82;10.63;;;7.50;73.40;;;;;;4926691;29;20217;-77
2021/03/07 12:27:22;;;;;;;13.38;11.45;;;7.50;74.20;;;;;;4931138;28;20220;-78
2021/03/07 12:29:48;;;;;;;13.25;11.15;;;7.60;74.10;;;;;;4938775;29;20345;-79
2021/03/07 12:32:15;;;;;;;12.32;11.13;;;7.60;73.90;;;;;;4913874;29;20615;-78
2021/03/07 12:34:42;;;;;;;11.77;10.57;;;7.60;74.60;;;;;;4917709;29;20240;-79
2021/03/07 12:37:09;;;;;;;12.68;11.35;;;7.60;73.60;;;;;;4912518;28;20236;-78
2021/03/07 12:39:35;;;;;;;12.80;11.50;;;7.60;73.60;;;;;;4913212;29;20185;-78
2021/03/07 12:42:02;;;;;;;12.52;11.32;;;7.60;73.80;;;;;;4925640;29;20255;-77
2021/03/07 12:44:29;;;;;;;13.68;12.30;;;7.60;75.20;;;;;;4931802;29;20208;-78
2021/03/07 12:46:56;;;;;;;17.60;12.50;;;7.60;75.50;;;;;;4929973;28;20643;-79
2021/03/07 12:49:23;;;;;;;15.05;11.88;;;7.60;75.30;;;;;;4930336;29;20694;-78